Time;durP1;ratioP1;P1;durP2;ratioP2;P2;SDS_P1;SDS_P2;PMS_P1;PMS_P2;Temp;Humidity;BMP_temperature;BMP_pressure;BME280_temperature;BME280_humidity;BME280_pressure;Samples;Min_cycle;Max_cycle;Signal;HPM_P1;HPM_P2
2022/09/17 00:00:36;;;;;;;0.10;0.10;;;11.70;99.90;;;;;;5063613;28;20053;-81
2022/09/17 00:03:03;;;;;;;0.00;0.00;;;11.70;99.90;;;;;;5067836;28;20051;-80
2022/09/17 00:05:30;;;;;;;0.10;0.10;;;11.80;99.90;;;;;;5067876;28;20093;-81
2022/09/17 00:07:57;;;;;;;0.08;0.08;;;11.70;99.90;;;;;;5065957;28;20070;-79
2022/09/17 00:10:24;;;;;;;0.00;0.00;;;11.70;99.90;;;;;;5070614;28;20044;-79
2022/09/17 00:12:50;;;;;;;0.10;0.10;;;11.80;99.90;;;;;;5066049;28;20052;-81
2022/09/17 00:15:17;;;;;;;0.10;0.10;;;11.80;99.90;;;;;;5068371;28;20041;-84
2022/09/17 00:17:45;;;;;;;0.00;0.00;;;11.80;99.90;;;;;;5062067;28;20045;-84
2022/09/17 00:20:13;;;;;;;0.00;0.00;;;11.80;99.90;;;;;;5051442;28;20049;-80
2022/09/17 00:22:39;;;;;;;0.00;0.00;;;11.80;99.90;;;;;;5062482;28;20047;-79
2022/09/17 00:25:07;;;;;;;0.00;0.00;;;11.80;99.90;;;;;;5069343;28;20045;-80
2022/09/17 00:27:34;;;;;;;0.00;0.00;;;11.30;99.90;;;;;;5078379;28;20048;-80
2022/09/17 00:30:01;;;;;;;0.00;0.00;;;11.80;99.90;;;;;;5065584;28;20033;-78
2022/09/17 00:32:28;;;;;;;0.00;0.00;;;11.90;99.90;;;;;;5061865;28;20048;-79
2022/09/17 00:34:56;;;;;;;0.00;0.00;;;11.80;99.90;;;;;;5064991;28;20033;-80
2022/09/17 00:37:23;;;;;;;0.00;0.00;;;11.70;99.90;;;;;;5064568;28;20492;-81
2022/09/17 00:39:50;;;;;;;0.00;0.00;;;11.60;99.90;;;;;;5063283;28;20979;-79
2022/09/17 00:42:18;;;;;;;0.00;0.00;;;11.70;99.90;;;;;;5068158;28;20044;-79
2022/09/17 00:44:49;;;;;;;0.10;0.10;;;11.70;99.90;;;;;;5073670;28;20530;-80
2022/09/17 00:47:28;;;;;;;0.10;0.10;;;11.60;99.90;;;;;;5061049;28;20070;-79
2022/09/17 00:50:00;;;;;;;0.00;0.00;;;11.60;99.90;;;;;;5058317;28;20116;-79
2022/09/17 00:52:30;;;;;;;0.03;0.03;;;11.50;99.90;;;;;;5065125;28;20148;-79
2022/09/17 00:55:10;;;;;;;0.00;0.00;;;11.60;99.90;;;;;;5066750;28;20079;-78
2022/09/17 00:57:38;;;;;;;0.00;0.00;;;11.70;99.90;;;;;;5061514;28;20044;-81
2022/09/17 01:00:07;;;;;;;0.00;0.00;;;11.70;99.90;;;;;;5065185;28;20047;-80
2022/09/17 01:02:35;;;;;;;0.00;0.00;;;11.80;99.90;;;;;;5064763;28;20497;-80
2022/09/17 01:05:04;;;;;;;0.00;0.00;;;11.80;99.90;;;;;;5066414;28;20094;-80
2022/09/17 01:07:55;;;;;;;0.00;0.00;;;11.80;99.90;;;;;;5061764;28;20064;-79
2022/09/17 01:10:37;;;;;;;0.00;0.00;;;11.80;99.90;;;;;;5064512;28;20063;-81
2022/09/17 01:13:16;;;;;;;0.00;0.00;;;11.90;99.90;;;;;;5061003;28;20419;-78
2022/09/17 01:15:48;;;;;;;0.10;0.10;;;12.00;99.90;;;;;;5059186;28;20135;-79
2022/09/17 01:18:37;;;;;;;0.00;0.00;;;11.90;99.90;;;;;;5065583;28;20049;-79
2022/09/17 01:21:31;;;;;;;0.00;0.00;;;11.80;99.90;;;;;;5060383;28;20046;-80
2022/09/17 01:24:21;;;;;;;0.00;0.00;;;11.80;99.90;;;;;;5073096;28;20147;-81
2022/09/17 01:27:21;;;;;;;0.00;0.00;;;11.80;99.90;;;;;;5064579;28;20048;-80
2022/09/17 01:30:05;;;;;;;0.00;0.00;;;11.80;99.90;;;;;;5065944;28;20060;-80
2022/09/17 01:32:38;;;;;;;0.00;0.00;;;11.80;99.90;;;;;;5067878;28;20043;-82
2022/09/17 01:35:13;;;;;;;0.00;0.00;;;11.80;99.90;;;;;;5063982;28;20474;-84
2022/09/17 01:37:46;;;;;;;0.00;0.00;;;11.70;99.90;;;;;;5064734;28;20037;-83
2022/09/17 01:40:23;;;;;;;0.00;0.00;;;11.80;99.90;;;;;;5069260;28;20059;-83
2022/09/17 01:42:56;;;;;;;0.00;0.00;;;11.80;99.90;;;;;;5068371;28;20106;-81
2022/09/17 01:45:32;;;;;;;0.10;0.10;;;11.70;99.90;;;;;;5062824;28;20165;-84
2022/09/17 01:48:06;;;;;;;0.00;0.00;;;11.70;99.90;;;;;;5069228;28;20123;-84
2022/09/17 01:50:39;;;;;;;0.00;0.00;;;11.60;99.90;;;;;;5055160;28;20041;-83
2022/09/17 01:53:09;;;;;;;0.10;0.10;;;11.60;99.90;;;;;;5061836;28;20477;-83
2022/09/17 01:55:39;;;;;;;0.00;0.00;;;11.70;99.90;;;;;;5067968;28;20060;-83
2022/09/17 01:58:13;;;;;;;0.00;0.00;;;11.70;99.90;;;;;;5065215;28;20050;-81
2022/09/17 02:00:46;;;;;;;0.00;0.00;;;11.70;99.90;;;;;;5059980;28;20036;-80
2022/09/17 02:03:20;;;;;;;0.00;0.00;;;11.60;99.90;;;;;;5065073;28;20048;-79
2022/09/17 02:05:51;;;;;;;0.00;0.00;;;11.50;99.90;;;;;;5063548;28;20044;-81
2022/09/17 02:08:22;;;;;;;0.00;0.00;;;11.50;99.90;;;;;;5078722;28;20431;-81
2022/09/17 02:51:22;;;;;;;0.00;0.00;;;11.50;99.90;;;;;;5062242;28;20042;-87
2022/09/17 02:53:59;;;;;;;0.00;0.00;;;11.40;99.90;;;;;;5065703;28;20549;-86
2022/09/17 02:56:39;;;;;;;0.10;0.10;;;11.50;99.90;;;;;;5062827;28;20037;-86
2022/09/17 02:59:18;;;;;;;0.00;0.00;;;11.60;99.90;;;;;;5070223;28;20047;-86
2022/09/17 03:01:50;;;;;;;0.00;0.00;;;11.40;99.90;;;;;;5057720;28;20053;-82
2022/09/17 03:06:54;;;;;;;0.03;0.03;;;11.30;99.90;;;;;;5066744;28;20142;-81
2022/09/17 03:09:21;;;;;;;0.00;0.00;;;11.30;99.90;;;;;;5079470;28;20047;-81
2022/09/17 03:11:48;;;;;;;0.10;0.10;;;11.30;99.90;;;;;;5077352;28;20075;-79
2022/09/17 03:14:15;;;;;;;0.10;0.10;;;11.20;99.90;;;;;;5071147;28;20049;-79
2022/09/17 03:16:42;;;;;;;0.00;0.00;;;11.20;99.90;;;;;;5068549;28;20538;-79
2022/09/17 03:19:08;;;;;;;0.08;0.08;;;11.10;99.90;;;;;;5071947;28;20040;-78
2022/09/17 03:21:35;;;;;;;0.10;0.10;;;11.20;99.90;;;;;;5078317;28;20060;-81
2022/09/17 03:24:04;;;;;;;0.10;0.10;;;11.20;99.90;;;;;;5073287;28;20561;-79
2022/09/17 03:26:30;;;;;;;0.00;0.00;;;11.20;99.90;;;;;;5070742;28;20055;-83
2022/09/17 03:28:57;;;;;;;0.10;0.10;;;11.20;99.90;;;;;;5075152;28;20049;-82
2022/09/17 03:31:24;;;;;;;0.10;0.10;;;11.00;99.90;;;;;;5067499;28;20041;-80
2022/09/17 03:33:52;;;;;;;0.10;0.10;;;11.00;99.90;;;;;;5077529;28;20041;-80
2022/09/17 03:36:19;;;;;;;0.10;0.10;;;11.10;99.90;;;;;;5072821;28;20111;-84
2022/09/17 03:38:46;;;;;;;0.10;0.10;;;11.10;99.90;;;;;;5082760;28;20496;-82
2022/09/17 03:41:14;;;;;;;0.10;0.10;;;10.90;99.90;;;;;;5075732;28;20041;-84
2022/09/17 03:43:40;;;;;;;0.10;0.10;;;10.80;99.90;;;;;;5069830;28;20076;-80
2022/09/17 03:46:07;;;;;;;0.10;0.10;;;10.80;99.90;;;;;;5068162;28;20534;-79
2022/09/17 03:48:35;;;;;;;0.10;0.10;;;10.70;99.90;;;;;;5069803;28;20052;-77
2022/09/17 03:51:03;;;;;;;0.10;0.10;;;10.80;99.90;;;;;;5082393;28;20042;-80
2022/09/17 03:53:30;;;;;;;0.10;0.10;;;10.80;99.90;;;;;;5078612;28;20042;-80
2022/09/17 03:55:58;;;;;;;0.10;0.10;;;10.70;99.90;;;;;;5068054;28;20049;-78
2022/09/17 03:58:27;;;;;;;0.10;0.10;;;10.90;99.90;;;;;;5064342;28;20045;-80
2022/09/17 04:00:56;;;;;;;0.10;0.10;;;10.90;99.90;;;;;;5071836;28;20560;-80
2022/09/17 04:03:24;;;;;;;0.10;0.10;;;10.90;99.90;;;;;;5074238;28;20518;-78
2022/09/17 04:05:51;;;;;;;0.10;0.10;;;10.80;99.90;;;;;;5068743;28;20047;-79
2022/09/17 04:08:18;;;;;;;0.10;0.10;;;10.80;99.90;;;;;;5074257;28;20040;-79
2022/09/17 04:10:45;;;;;;;0.10;0.10;;;10.80;99.90;;;;;;5074901;28;20488;-81
2022/09/17 04:13:13;;;;;;;0.10;0.10;;;10.80;99.90;;;;;;5074572;28;20043;-80
2022/09/17 04:15:41;;;;;;;0.10;0.10;;;10.90;99.90;;;;;;5086983;28;20038;-82
2022/09/17 04:18:09;;;;;;;0.10;0.10;;;10.90;99.90;;;;;;5087346;28;20083;-81
2022/09/17 04:20:36;;;;;;;0.00;0.00;;;10.80;99.90;;;;;;5073231;28;20131;-81
2022/09/17 04:23:03;;;;;;;0.10;0.10;;;10.80;99.90;;;;;;5069942;28;20300;-80
2022/09/17 04:25:30;;;;;;;0.10;0.10;;;10.80;99.90;;;;;;5079176;28;20549;-80
2022/09/17 04:27:56;;;;;;;0.10;0.10;;;10.80;99.90;;;;;;5086378;28;20048;-84
2022/09/17 04:30:23;;;;;;;0.10;0.10;;;10.80;99.90;;;;;;5070560;28;20060;-80
2022/09/17 04:32:51;;;;;;;0.10;0.10;;;10.70;99.90;;;;;;5074541;28;20052;-81
2022/09/17 04:35:18;;;;;;;0.10;0.10;;;10.50;99.90;;;;;;5079293;28;20480;-81
2022/09/17 04:37:51;;;;;;;0.10;0.10;;;10.50;99.90;;;;;;5073103;28;20402;-78
2022/09/17 04:40:18;;;;;;;0.10;0.10;;;10.50;99.90;;;;;;5073738;28;20045;-79
2022/09/17 04:42:44;;;;;;;0.10;0.10;;;10.30;99.90;;;;;;5075212;28;20040;-78
2022/09/17 04:45:11;;;;;;;0.10;0.10;;;10.40;99.90;;;;;;5068654;28;20283;-79
2022/09/17 04:47:38;;;;;;;0.10;0.10;;;10.40;99.90;;;;;;5071679;28;20124;-80
2022/09/17 04:50:07;;;;;;;0.10;0.10;;;10.40;99.90;;;;;;5075062;28;20040;-79
2022/09/17 04:52:34;;;;;;;0.10;0.10;;;10.50;99.90;;;;;;5071537;28;20113;-81
2022/09/17 04:55:01;;;;;;;0.10;0.10;;;10.50;99.90;;;;;;5064185;28;20573;-79
2022/09/17 04:57:27;;;;;;;0.10;0.10;;;10.50;99.90;;;;;;5068744;28;20072;-80
2022/09/17 04:59:54;;;;;;;0.00;0.00;;;10.50;99.90;;;;;;5071819;28;20049;-81
2022/09/17 05:02:21;;;;;;;0.10;0.10;;;10.40;99.90;;;;;;5067278;28;20071;-80
2022/09/17 05:04:49;;;;;;;0.10;0.10;;;10.50;99.90;;;;;;5072173;28;20444;-79
2022/09/17 05:07:17;;;;;;;0.10;0.10;;;10.40;99.90;;;;;;5068688;28;20450;-80
2022/09/17 05:09:44;;;;;;;0.10;0.10;;;10.30;99.90;;;;;;5072110;28;20052;-79
2022/09/17 05:12:11;;;;;;;0.10;0.10;;;10.40;99.90;;;;;;5071915;28;20060;-81
2022/09/17 05:14:38;;;;;;;0.00;0.00;;;10.50;99.90;;;;;;5070975;28;20045;-80
2022/09/17 05:17:04;;;;;;;0.00;0.00;;;10.50;99.90;;;;;;5066157;28;20119;-80
2022/09/17 05:19:31;;;;;;;0.00;0.00;;;10.50;99.90;;;;;;5068549;28;20054;-81
2022/09/17 05:21:58;;;;;;;0.03;0.03;;;10.60;99.90;;;;;;5068187;28;20036;-81
2022/09/17 05:24:26;;;;;;;0.10;0.10;;;10.40;99.90;;;;;;5067993;28;20468;-81
2022/09/17 05:26:53;;;;;;;0.10;0.10;;;10.40;99.90;;;;;;5068739;28;20050;-79
2022/09/17 05:29:20;;;;;;;0.10;0.10;;;10.30;99.90;;;;;;5064410;28;20575;-82
2022/09/17 05:31:47;;;;;;;0.00;0.00;;;10.40;99.90;;;;;;5083198;28;20029;-80
2022/09/17 05:34:13;;;;;;;0.10;0.10;;;10.40;99.90;;;;;;5064550;28;20659;-80
2022/09/17 05:36:40;;;;;;;0.10;0.10;;;10.40;99.90;;;;;;5072744;28;20484;-80
2022/09/17 05:39:08;;;;;;;0.03;0.03;;;10.30;99.90;;;;;;5067172;28;20047;-78
2022/09/17 05:41:36;;;;;;;0.10;0.10;;;10.40;99.90;;;;;;5071702;28;20051;-81
2022/09/17 05:44:03;;;;;;;0.10;0.10;;;10.40;99.90;;;;;;5074019;28;20136;-80
2022/09/17 05:46:29;;;;;;;0.10;0.10;;;10.30;99.90;;;;;;5064688;28;20044;-79
2022/09/17 05:48:57;;;;;;;0.10;0.10;;;10.30;99.90;;;;;;5068477;28;20052;-81
2022/09/17 05:51:23;;;;;;;0.10;0.10;;;10.30;99.90;;;;;;5066570;28;20523;-80
2022/09/17 05:53:53;;;;;;;0.00;0.00;;;10.30;99.90;;;;;;5073048;28;20427;-80
2022/09/17 05:56:20;;;;;;;0.10;0.10;;;10.40;99.90;;;;;;5071288;28;20054;-79
2022/09/17 05:58:48;;;;;;;0.10;0.10;;;10.30;99.90;;;;;;5068291;28;20519;-77
2022/09/17 06:01:15;;;;;;;0.10;0.10;;;10.30;99.90;;;;;;5071282;28;20493;-78
2022/09/17 06:03:42;;;;;;;0.10;0.10;;;10.30;99.90;;;;;;5079947;28;20056;-81
2022/09/17 06:06:09;;;;;;;0.10;0.10;;;10.40;99.90;;;;;;5066627;28;20079;-80
2022/09/17 06:08:36;;;;;;;0.10;0.10;;;10.50;99.90;;;;;;5071209;28;20051;-81
2022/09/17 06:11:04;;;;;;;0.10;0.10;;;10.50;99.90;;;;;;5073077;28;20047;-80
2022/09/17 06:13:31;;;;;;;0.00;0.00;;;10.60;99.90;;;;;;5064391;28;20075;-80
2022/09/17 06:16:01;;;;;;;0.10;0.10;;;10.60;99.90;;;;;;5079584;28;20047;-81
2022/09/17 06:18:29;;;;;;;0.10;0.10;;;10.60;99.90;;;;;;5067667;28;20507;-81
2022/09/17 06:20:58;;;;;;;0.10;0.10;;;10.60;99.90;;;;;;5068451;28;20044;-80
2022/09/17 06:23:26;;;;;;;0.10;0.10;;;10.70;99.90;;;;;;5067576;28;20130;-77
2022/09/17 06:25:55;;;;;;;0.10;0.10;;;10.80;99.90;;;;;;5072082;28;20041;-79
2022/09/17 06:28:22;;;;;;;0.10;0.10;;;10.70;99.90;;;;;;5072361;28;20036;-79
2022/09/17 06:30:51;;;;;;;0.00;0.00;;;10.70;99.90;;;;;;5066477;28;20055;-81
2022/09/17 06:33:19;;;;;;;0.10;0.10;;;10.80;99.90;;;;;;5060814;28;20071;-81
2022/09/17 06:35:46;;;;;;;0.00;0.00;;;10.70;99.90;;;;;;5065316;28;20090;-81
2022/09/17 06:38:13;;;;;;;0.10;0.10;;;10.70;99.90;;;;;;5068023;28;20075;-80
2022/09/17 06:40:40;;;;;;;0.10;0.10;;;10.80;99.90;;;;;;5073944;28;20079;-79
2022/09/17 06:43:07;;;;;;;0.10;0.10;;;10.90;99.90;;;;;;5076205;28;20108;-81
2022/09/17 06:45:33;;;;;;;0.00;0.00;;;10.90;99.90;;;;;;5054128;28;20072;-80
2022/09/17 06:48:03;;;;;;;0.10;0.10;;;10.90;99.90;;;;;;5074446;28;20052;-79
2022/09/17 06:50:31;;;;;;;0.10;0.10;;;10.80;99.90;;;;;;5061916;28;20040;-79
2022/09/17 06:52:57;;;;;;;0.10;0.10;;;10.80;99.90;;;;;;5061607;28;20044;-81
2022/09/17 06:55:24;;;;;;;0.10;0.10;;;10.90;99.90;;;;;;5056454;28;20036;-80
2022/09/17 06:57:51;;;;;;;0.10;0.10;;;10.90;99.90;;;;;;5064397;28;20058;-80
2022/09/17 07:00:18;;;;;;;0.10;0.10;;;10.90;99.90;;;;;;5062780;28;20099;-79
2022/09/17 07:02:55;;;;;;;0.10;0.10;;;10.80;99.90;;;;;;5063581;28;20082;-79
2022/09/17 07:05:22;;;;;;;0.10;0.10;;;10.70;99.90;;;;;;5060922;28;20135;-81
2022/09/17 07:07:50;;;;;;;0.10;0.10;;;10.70;99.90;;;;;;5057399;28;20045;-79
2022/09/17 07:10:17;;;;;;;0.10;0.10;;;10.80;99.90;;;;;;5062297;28;20128;-80
2022/09/17 07:12:44;;;;;;;0.00;0.00;;;10.90;99.90;;;;;;5056215;28;20139;-79
2022/09/17 07:15:15;;;;;;;0.00;0.00;;;10.90;99.90;;;;;;5059466;28;20044;-80
2022/09/17 07:17:43;;;;;;;0.10;0.10;;;11.00;99.90;;;;;;5063078;28;20052;-81
2022/09/17 07:20:10;;;;;;;0.10;0.10;;;11.00;99.90;;;;;;5065236;28;20033;-79
2022/09/17 07:22:37;;;;;;;0.10;0.10;;;11.10;99.90;;;;;;5063525;28;20037;-80
2022/09/17 07:25:07;;;;;;;0.05;0.05;;;11.10;99.90;;;;;;5062953;28;20463;-80
2022/09/17 07:27:33;;;;;;;0.00;0.00;;;11.20;99.90;;;;;;5067259;28;20044;-79
2022/09/17 07:30:00;;;;;;;0.00;0.00;;;11.20;99.90;;;;;;5062695;28;20063;-82
2022/09/17 07:32:28;;;;;;;0.10;0.10;;;11.20;99.90;;;;;;5063499;28;20381;-78
2022/09/17 07:34:55;;;;;;;0.00;0.00;;;11.10;99.90;;;;;;5062962;28;20053;-81
2022/09/17 07:37:22;;;;;;;0.00;0.00;;;;;;;;;;5065953;28;20063;-80
2022/09/17 07:39:49;;;;;;;0.10;0.10;;;11.10;99.90;;;;;;5063698;28;20098;-78
2022/09/17 07:42:17;;;;;;;0.03;0.03;;;11.10;99.90;;;;;;5057034;28;20447;-81
2022/09/17 07:44:45;;;;;;;0.10;0.10;;;11.00;99.90;;;;;;5063514;28;20048;-81
2022/09/17 07:47:12;;;;;;;0.10;0.10;;;11.00;99.90;;;;;;5059106;28;20140;-80
2022/09/17 07:49:39;;;;;;;0.10;0.10;;;11.00;99.90;;;;;;5060309;28;20156;-80
2022/09/17 07:52:06;;;;;;;0.03;0.03;;;11.10;99.90;;;;;;5063421;28;20036;-81
2022/09/17 07:54:33;;;;;;;0.10;0.10;;;11.20;99.90;;;;;;5062992;28;20482;-81
2022/09/17 07:57:00;;;;;;;0.10;0.10;;;11.30;99.90;;;;;;5064377;28;20081;-81
2022/09/17 07:59:28;;;;;;;0.05;0.05;;;11.30;99.90;;;;;;5067187;28;21939;-79
2022/09/17 08:01:55;;;;;;;0.00;0.00;;;11.30;99.90;;;;;;5066270;28;20082;-78
2022/09/17 08:04:22;;;;;;;0.00;0.00;;;11.40;99.90;;;;;;5067699;28;20040;-79
2022/09/17 08:06:48;;;;;;;0.00;0.00;;;11.40;99.90;;;;;;5070346;28;20067;-79
2022/09/17 08:09:17;;;;;;;0.00;0.00;;;11.40;99.90;;;;;;5049248;28;20071;-80
2022/09/17 08:11:44;;;;;;;0.00;0.00;;;11.40;99.90;;;;;;5060204;28;20052;-81
2022/09/17 08:14:22;;;;;;;0.00;0.00;;;11.50;99.90;;;;;;5064281;28;20047;-81
2022/09/17 08:16:56;;;;;;;0.03;0.03;;;11.50;99.90;;;;;;5062409;28;20052;-79
2022/09/17 08:19:24;;;;;;;0.10;0.10;;;;;;;;;;5063991;28;20071;-82
2022/09/17 08:21:51;;;;;;;0.10;0.10;;;11.60;99.90;;;;;;5063772;28;20119;-81
2022/09/17 08:24:17;;;;;;;0.00;0.00;;;11.60;99.90;;;;;;5064741;28;20044;-80
2022/09/17 08:26:44;;;;;;;0.00;0.00;;;11.60;99.90;;;;;;5073405;28;20071;-81
2022/09/17 08:29:11;;;;;;;0.00;0.00;;;11.70;99.90;;;;;;5063685;28;20044;-81
2022/09/17 08:31:38;;;;;;;0.00;0.00;;;11.70;99.90;;;;;;5066468;28;20041;-81
2022/09/17 08:34:08;;;;;;;0.05;0.05;;;11.80;99.90;;;;;;5071768;28;20044;-82
2022/09/17 08:36:36;;;;;;;0.00;0.00;;;11.80;99.90;;;;;;5066725;28;20109;-80
2022/09/17 08:39:03;;;;;;;0.00;0.00;;;11.90;99.90;;;;;;5069198;28;20050;-81
2022/09/17 08:41:41;;;;;;;0.00;0.00;;;11.90;99.90;;;;;;5060413;28;20098;-82
2022/09/17 08:44:16;;;;;;;0.00;0.00;;;12.00;99.90;;;;;;5082999;28;20146;-82
2022/09/17 08:46:47;;;;;;;0.00;0.00;;;12.00;99.90;;;;;;5068952;28;20180;-82
2022/09/17 08:49:26;;;;;;;0.03;0.03;;;12.00;99.90;;;;;;5071556;28;20452;-79
2022/09/17 08:52:08;;;;;;;0.00;0.00;;;12.10;99.90;;;;;;5068197;28;20087;-80
2022/09/17 08:54:41;;;;;;;0.00;0.00;;;12.20;99.90;;;;;;5068621;28;20054;-80
2022/09/17 08:57:17;;;;;;;0.00;0.00;;;12.20;99.90;;;;;;5067796;28;20052;-83
2022/09/17 08:59:51;;;;;;;0.00;0.00;;;12.30;99.90;;;;;;5071652;28;20044;-80
2022/09/17 09:02:31;;;;;;;0.10;0.10;;;12.30;99.90;;;;;;5065094;28;20039;-82
2022/09/17 09:07:37;;;;;;;0.10;0.10;;;12.40;99.90;;;;;;5006282;28;20058;-84
2022/09/17 09:10:13;;;;;;;0.00;0.00;;;12.40;99.90;;;;;;5012045;28;20060;-86
2022/09/17 09:12:41;;;;;;;0.00;0.00;;;12.50;99.90;;;;;;5009871;28;20038;-85
2022/09/17 09:15:22;;;;;;;0.00;0.00;;;12.60;99.90;;;;;;5014535;28;20060;-85
2022/09/17 09:17:51;;;;;;;0.00;0.00;;;14.00;99.90;;;;;;5008746;28;20116;-85
2022/09/17 09:20:28;;;;;;;0.00;0.00;;;12.60;99.90;;;;;;4998193;28;20121;-85
2022/09/17 09:23:01;;;;;;;0.00;0.00;;;12.60;99.90;;;;;;5007175;28;20056;-85
2022/09/17 09:25:34;;;;;;;0.00;0.00;;;12.60;99.90;;;;;;4996047;28;20046;-85
2022/09/17 09:28:09;;;;;;;0.00;0.00;;;12.60;99.90;;;;;;5014860;28;20045;-86
2022/09/17 09:30:47;;;;;;;0.00;0.00;;;12.60;99.90;;;;;;5011101;28;20041;-84
2022/09/17 09:33:17;;;;;;;0.00;0.00;;;12.80;99.90;;;;;;4983234;28;20053;-85
2022/09/17 09:35:44;;;;;;;0.10;0.10;;;12.70;99.90;;;;;;5007796;28;20060;-84
2022/09/17 09:38:19;;;;;;;0.00;0.00;;;12.80;99.90;;;;;;5009735;28;20296;-86
2022/09/17 09:40:52;;;;;;;0.00;0.00;;;12.90;99.90;;;;;;4998451;28;20053;-85
2022/09/17 09:43:22;;;;;;;0.00;0.00;;;13.00;99.90;;;;;;5013062;28;20048;-86
2022/09/17 09:46:37;;;;;;;0.00;0.00;;;13.00;99.90;;;;;;5008123;28;20046;-86
2022/09/17 09:49:15;;;;;;;0.00;0.00;;;12.90;99.90;;;;;;5012395;28;20044;-85
2022/09/17 09:51:51;;;;;;;0.00;0.00;;;12.80;99.90;;;;;;5017131;28;20456;-85
2022/09/17 09:54:30;;;;;;;0.00;0.00;;;13.00;99.90;;;;;;5012093;28;20052;-86
2022/09/17 09:57:02;;;;;;;0.00;0.00;;;13.00;99.90;;;;;;5015208;28;20050;-85
2022/09/17 09:59:29;;;;;;;0.00;0.00;;;13.20;99.90;;;;;;4996985;28;20042;-86
2022/09/17 10:01:56;;;;;;;0.00;0.00;;;13.30;99.90;;;;;;5018716;28;20040;-85
2022/09/17 10:04:25;;;;;;;0.00;0.00;;;13.40;99.40;;;;;;5016566;28;20046;-85
2022/09/17 10:06:54;;;;;;;0.00;0.00;;;13.50;99.90;;;;;;5012019;28;20056;-85
2022/09/17 10:09:22;;;;;;;0.00;0.00;;;13.60;98.80;;;;;;4998321;28;20034;-85
2022/09/17 10:12:04;;;;;;;0.00;0.00;;;13.60;99.10;;;;;;5013791;28;20048;-85
2022/09/17 10:14:33;;;;;;;0.00;0.00;;;13.70;99.70;;;;;;5003626;28;20049;-86
2022/09/17 10:17:19;;;;;;;0.00;0.00;;;13.80;99.00;;;;;;4994010;28;20056;-85
2022/09/17 10:20:06;;;;;;;0.00;0.00;;;13.80;98.30;;;;;;4995266;28;20534;-85
2022/09/17 10:22:34;;;;;;;0.00;0.00;;;13.90;99.20;;;;;;5005649;28;20172;-85
2022/09/17 10:25:04;;;;;;;0.00;0.00;;;14.00;98.20;;;;;;4999711;28;20045;-85
2022/09/17 10:27:33;;;;;;;0.00;0.00;;;14.10;97.10;;;;;;5000695;28;20410;-85
2022/09/17 10:30:12;;;;;;;0.00;0.00;;;14.00;95.50;;;;;;5015072;28;20045;-85
2022/09/17 10:32:39;;;;;;;0.00;0.00;;;13.90;96.40;;;;;;5017552;28;20576;-84
2022/09/17 10:35:25;;;;;;;0.00;0.00;;;13.80;96.90;;;;;;4994298;28;20049;-86
2022/09/17 10:37:53;;;;;;;0.00;0.00;;;13.80;96.70;;;;;;5005608;28;20084;-85
2022/09/17 10:40:30;;;;;;;0.00;0.00;;;14.00;97.60;;;;;;4999741;28;20512;-85
2022/09/17 10:43:24;;;;;;;0.00;0.00;;;14.00;96.60;;;;;;5024623;28;20493;-85
2022/09/17 10:45:57;;;;;;;0.00;0.00;;;14.10;97.40;;;;;;4968496;28;20054;-85
2022/09/17 10:48:28;;;;;;;0.00;0.00;;;14.20;95.80;;;;;;5014297;28;20102;-84
2022/09/17 10:50:55;;;;;;;0.00;0.00;;;14.00;96.30;;;;;;4994846;28;20055;-85
2022/09/17 10:53:24;;;;;;;0.00;0.00;;;14.00;96.30;;;;;;4989376;28;20048;-85
2022/09/17 10:56:00;;;;;;;0.00;0.00;;;14.10;98.10;;;;;;4993250;28;20424;-85
2022/09/17 10:58:42;;;;;;;0.00;0.00;;;14.30;97.70;;;;;;4992117;28;20375;-85
2022/09/17 11:01:21;;;;;;;0.10;0.03;;;14.50;97.30;;;;;;5007661;28;20294;-85
2022/09/17 11:04:01;;;;;;;0.00;0.00;;;14.50;96.10;;;;;;4998589;28;20097;-85
2022/09/17 11:06:54;;;;;;;0.00;0.00;;;14.60;95.80;;;;;;4993546;28;21230;-85
2022/09/17 11:09:33;;;;;;;0.00;0.00;;;14.70;96.70;;;;;;5001328;28;20084;-84
2022/09/17 11:12:19;;;;;;;0.03;0.03;;;14.70;95.60;;;;;;5015874;28;20037;-85
2022/09/17 11:14:51;;;;;;;0.00;0.00;;;14.60;95.60;;;;;;4996052;28;20343;-86
2022/09/17 11:17:34;;;;;;;0.00;0.00;;;14.60;94.60;;;;;;5012319;28;20048;-85
2022/09/17 11:20:05;;;;;;;0.00;0.00;;;14.70;94.20;;;;;;5009158;28;20078;-85
2022/09/17 11:22:45;;;;;;;0.00;0.00;;;14.40;93.50;;;;;;5010477;28;20038;-84
2022/09/17 11:25:27;;;;;;;0.10;0.10;;;14.40;93.80;;;;;;5015235;28;20041;-85
2022/09/17 11:28:09;;;;;;;0.00;0.00;;;14.30;93.40;;;;;;5001948;28;20050;-85
2022/09/17 11:30:48;;;;;;;0.00;0.00;;;14.30;94.60;;;;;;5015605;28;20050;-85
2022/09/17 11:33:24;;;;;;;;;;;14.10;97.60;;;;;;5000184;28;20117;-86
2022/09/17 11:35:58;;;;;;;0.00;0.00;;;13.70;98.20;;;;;;5009861;28;19921;-84
2022/09/17 11:38:29;;;;;;;0.00;0.00;;;13.60;99.50;;;;;;5010224;28;20045;-85
2022/09/17 11:41:02;;;;;;;0.00;0.00;;;13.60;99.80;;;;;;4997737;28;20063;-86
2022/09/17 11:43:33;;;;;;;0.00;0.00;;;13.70;97.00;;;;;;5014008;28;20041;-87
2022/09/17 11:46:04;;;;;;;0.00;0.00;;;13.70;96.90;;;;;;5006748;28;20545;-85
2022/09/17 11:48:38;;;;;;;0.00;0.00;;;13.70;97.10;;;;;;4997083;28;20052;-85
2022/09/17 11:51:19;;;;;;;0.00;0.00;;;13.80;97.40;;;;;;4992969;28;20593;-84
2022/09/17 11:53:51;;;;;;;0.00;0.00;;;14.10;98.20;;;;;;5011965;28;20052;-84
2022/09/17 11:56:24;;;;;;;0.00;0.00;;;14.20;96.10;;;;;;5010935;28;20042;-84
2022/09/17 11:58:57;;;;;;;0.00;0.00;;;14.40;96.70;;;;;;5008901;28;20034;-85
2022/09/17 12:01:33;;;;;;;0.00;0.00;;;13.90;96.90;;;;;;5001971;28;20038;-84
2022/09/17 12:04:12;;;;;;;0.00;0.00;;;13.90;97.00;;;;;;5007106;28;20118;-85
2022/09/17 12:06:46;;;;;;;0.00;0.00;;;13.90;98.70;;;;;;5012091;28;20046;-84
2022/09/17 12:09:18;;;;;;;0.00;0.00;;;14.10;98.50;;;;;;5013684;28;20031;-84
2022/09/17 12:11:51;;;;;;;0.00;0.00;;;14.30;98.30;;;;;;5010736;28;20077;-84
2022/09/17 12:14:23;;;;;;;0.00;0.00;;;14.70;97.80;;;;;;5014408;28;20044;-84
2022/09/17 12:16:55;;;;;;;0.00;0.00;;;14.70;97.90;;;;;;5009282;28;20040;-84
2022/09/17 12:19:27;;;;;;;0.00;0.00;;;14.80;98.10;;;;;;5021099;28;20046;-84
2022/09/17 12:21:58;;;;;;;0.00;0.00;;;15.00;97.80;;;;;;5004142;28;20050;-85
2022/09/17 12:24:27;;;;;;;0.00;0.00;;;15.00;96.50;;;;;;5012919;28;20042;-84
2022/09/17 12:27:04;;;;;;;0.00;0.00;;;14.50;95.90;;;;;;5004647;28;20038;-84
2022/09/17 12:30:04;;;;;;;0.00;0.00;;;14.40;97.00;;;;;;5014433;28;20056;-84
2022/09/17 12:33:03;;;;;;;0.00;0.00;;;14.30;98.50;;;;;;5012960;28;20114;-85
2022/09/17 12:35:47;;;;;;;0.00;0.00;;;14.20;99.90;;;;;;4985941;28;20494;-84
2022/09/17 12:38:57;;;;;;;0.00;0.00;;;14.10;99.90;;;;;;5013073;28;20048;-84
2022/09/17 12:41:40;;;;;;;0.00;0.00;;;14.10;99.90;;;;;;4996761;28;20054;-84
2022/09/17 12:44:21;;;;;;;0.00;0.00;;;14.30;99.90;;;;;;5010483;28;20047;-85
2022/09/17 12:47:04;;;;;;;0.00;0.00;;;14.40;98.70;;;;;;5008459;28;20520;-84
2022/09/17 12:49:54;;;;;;;0.00;0.00;;;14.40;99.20;;;;;;4992925;28;20045;-84
2022/09/17 12:52:27;;;;;;;;;;;14.40;97.70;;;;;;5015826;28;20449;-84
2022/09/17 12:55:26;;;;;;;0.00;0.00;;;14.40;97.70;;;;;;5011474;28;19925;-84
2022/09/17 12:58:04;;;;;;;0.00;0.00;;;14.20;98.30;;;;;;5008887;28;20085;-84
2022/09/17 13:00:39;;;;;;;0.00;0.00;;;14.10;98.60;;;;;;5012596;28;20046;-85
2022/09/17 13:03:17;;;;;;;0.00;0.00;;;14.20;98.50;;;;;;5011596;28;20041;-84
2022/09/17 13:05:59;;;;;;;0.00;0.00;;;14.30;97.50;;;;;;4993270;28;20391;-84
2022/09/17 13:08:45;;;;;;;0.00;0.00;;;14.40;96.90;;;;;;4987778;28;20963;-84
2022/09/17 13:11:58;;;;;;;0.00;0.00;;;14.50;95.30;;;;;;4992262;28;20045;-85
2022/09/17 13:14:38;;;;;;;0.00;0.00;;;14.60;95.20;;;;;;5012120;28;20520;-85
2022/09/17 13:17:10;;;;;;;0.00;0.00;;;14.40;94.60;;;;;;4995299;28;20051;-85
2022/09/17 13:19:42;;;;;;;0.00;0.00;;;14.40;94.50;;;;;;5012683;28;20077;-84
2022/09/17 13:22:16;;;;;;;0.00;0.00;;;14.30;94.40;;;;;;4998593;28;20514;-83
2022/09/17 13:24:45;;;;;;;0.00;0.00;;;14.40;94.60;;;;;;4998998;28;20073;-84
2022/09/17 13:27:21;;;;;;;0.00;0.00;;;14.40;95.40;;;;;;4997734;28;20053;-84
2022/09/17 13:30:01;;;;;;;0.00;0.00;;;14.50;97.20;;;;;;5007030;28;20048;-84
2022/09/17 13:32:45;;;;;;;0.00;0.00;;;14.20;98.90;;;;;;5008564;28;20089;-84
2022/09/17 13:35:48;;;;;;;0.00;0.00;;;14.00;99.90;;;;;;5011726;28;20046;-85
2022/09/17 13:38:18;;;;;;;0.00;0.00;;;14.10;99.30;;;;;;5008236;28;20046;-84
2022/09/17 13:40:49;;;;;;;0.00;0.00;;;14.00;98.70;;;;;;5019210;28;20041;-84
2022/09/17 13:43:21;;;;;;;0.00;0.00;;;14.00;98.10;;;;;;5006998;28;20498;-83
2022/09/17 13:46:24;;;;;;;0.00;0.00;;;14.10;97.60;;;;;;5011033;28;20049;-84
2022/09/17 13:48:56;;;;;;;0.00;0.00;;;14.10;97.40;;;;;;5010063;28;20053;-84
2022/09/17 13:51:48;;;;;;;0.00;0.00;;;14.30;96.90;;;;;;5015800;28;20054;-85
2022/09/17 13:54:18;;;;;;;0.00;0.00;;;14.60;96.50;;;;;;5009465;28;20034;-85
2022/09/17 13:56:48;;;;;;;0.00;0.00;;;14.70;97.10;;;;;;5012029;28;20050;-85
2022/09/17 13:59:16;;;;;;;;;;;14.90;96.70;;;;;;5017550;28;20033;-85